Time,TemperatureF,DewpointF,PressureIn,WindDirection,WindDirectionDegrees,WindSpeedMPH,WindSpeedGustMPH,Humidity,HourlyPrecipIn,Conditions,Clouds,dailyrainin,SoftwareType,DateUTC
2013-02-17 00:00:00,13.8,-13.3,29.93,NW,315,6.1,6.1,28,0.00,CLR,,0.00,WeatherDisplay:10.37,2013-02-17 05:00:00,
2013-02-17 00:01:00,13.8,-13.3,29.95,NW,315,6.1,6.1,28,0.00,CLR,,0.00,WeatherDisplay:10.37,2013-02-17 05:01:00,
2013-02-17 00:04:00,13.8,-13.3,29.93,NNW,337,6.1,6.1,28,0.00,CLR,,0.00,WeatherDisplay:10.37,2013-02-17 05:04:00,
2013-02-17 00:09:00,14.2,-13.0,29.93,NNW,337,4.9,4.9,28,0.00,CLR,,0.00,WeatherDisplay:10.37,2013-02-17 05:09:00,
2013-02-17 00:14:00,14.2,-13.0,29.93,NNW,337,4.9,4.9,28,0.00,CLR,,0.00,WeatherDisplay:10.37,2013-02-17 05:14:00,
2013-02-17 00:19:00,14.2,-13.0,29.95,North,0,4.9,4.9,28,0.00,CLR,,0.00,WeatherDisplay:10.37,2013-02-17 05:19:00,
2013-02-17 00:24:00,14.2,-13.0,29.89,NNW,337,4.9,4.9,28,0.00,CLR,,0.00,WeatherDisplay:10.37,2013-02-17 05:24:00,
2013-02-17 00:29:00,14.4,-12.9,29.90,NNW,337,4.9,4.9,28,0.00,CLR,,0.00,WeatherDisplay:10.37,2013-02-17 05:29:00,
2013-02-17 00:34:00,14.4,-12.9,29.91,NNW,337,4.9,4.9,28,0.00,CLR,,0.00,WeatherDisplay:10.37,2013-02-17 05:34:00,
2013-02-17 00:39:00,14.7,-12.6,29.91,NNW,337,4.9,4.9,28,0.00,CLR,,0.00,WeatherDisplay:10.37,2013-02-17 05:39:00,
2013-02-17 00:44:00,14.9,-12.4,29.91,NNW,337,4.9,4.9,28,0.00,CLR,,0.00,WeatherDisplay:10.37,2013-02-17 05:44:00,
2013-02-17 00:49:00,15.1,-12.2,29.90,ENE,67,4.9,4.9,28,0.00,CLR,,0.00,WeatherDisplay:10.37,2013-02-17 05:49:00,
2013-02-17 00:54:00,15.1,-12.2,29.95,North,0,4.9,4.9,28,0.00,CLR,,0.00,WeatherDisplay:10.37,2013-02-17 05:54:00,
2013-02-17 00:59:00,15.3,-12.1,29.95,NNW,337,4.9,4.9,28,0.00,CLR,,0.00,WeatherDisplay:10.37,2013-02-17 05:59:00,
2013-02-17 01:04:00,15.3,-12.1,29.95,NNW,337,4.6,4.6,28,0.00,CLR,,0.00,WeatherDisplay:10.37,2013-02-17 06:04:00,
2013-02-17 01:09:00,11.8,-15.1,29.95,North,0,4.0,4.0,28,0.00,CLR,,0.00,WeatherDisplay:10.37,2013-02-17 06:09:00,
2013-02-17 01:14:00,12.0,-14.9,29.95,North,0,4.0,4.0,28,0.00,CLR,,0.00,WeatherDisplay:10.37,2013-02-17 06:14:00,
2013-02-17 01:19:00,12.0,-14.9,29.90,North,0,4.0,4.0,28,0.00,CLR,,0.00,WeatherDisplay:10.37,2013-02-17 06:19:00,
2013-02-17 01:24:00,12.2,-14.8,29.91,NNW,337,4.0,4.0,28,0.00,CLR,,0.00,WeatherDisplay:10.37,2013-02-17 06:24:00,
2013-02-17 01:29:00,12.4,-14.6,29.91,NW,315,4.6,4.6,28,0.00,CLR,,0.00,WeatherDisplay:10.37,2013-02-17 06:29:00,
2013-02-17 01:34:00,12.7,-14.3,29.92,NW,315,4.6,4.6,28,0.00,CLR,,0.00,WeatherDisplay:10.37,2013-02-17 06:34:00,
2013-02-17 01:39:00,12.7,-14.3,29.92,NNW,337,4.6,4.6,28,0.00,CLR,,0.00,WeatherDisplay:10.37,2013-02-17 06:39:00,
2013-02-17 01:44:00,12.7,-14.3,29.92,North,0,4.6,4.6,28,0.00,CLR,,0.00,WeatherDisplay:10.37,2013-02-17 06:44:00,
2013-02-17 01:49:00,13.1,-14.0,29.91,North,0,4.9,4.9,28,0.00,CLR,,0.00,WeatherDisplay:10.37,2013-02-17 06:49:00,
2013-02-17 01:54:00,13.1,-14.0,29.91,NNW,337,4.9,4.9,28,0.00,CLR,,0.00,WeatherDisplay:10.37,2013-02-17 06:54:00,
2013-02-17 01:59:00,13.5,-13.7,29.96,North,0,4.9,4.9,28,0.00,CLR,,0.00,WeatherDisplay:10.37,2013-02-17 06:59:00,
2013-02-17 02:04:00,13.5,-13.7,29.95,NW,315,4.9,4.9,28,0.00,CLR,,0.00,WeatherDisplay:10.37,2013-02-17 07:04:00,
2013-02-17 02:09:00,13.5,-13.7,29.95,NW,315,3.5,3.5,28,0.00,CLR,,0.00,WeatherDisplay:10.37,2013-02-17 07:09:00,
2013-02-17 02:14:00,13.5,-13.7,29.96,NNW,337,3.5,3.5,28,0.00,CLR,,0.00,WeatherDisplay:10.37,2013-02-17 07:14:00,
2013-02-17 02:19:00,10.0,-16.7,29.91,NNW,337,4.6,4.6,28,0.00,CLR,,0.00,WeatherDisplay:10.37,2013-02-17 07:19:00,
2013-02-17 02:24:00,13.5,-13.7,29.92,NNW,337,4.6,4.6,28,0.00,CLR,,0.00,WeatherDisplay:10.37,2013-02-17 07:24:00,
2013-02-17 02:29:00,10.0,-16.7,29.92,North,0,4.6,4.6,28,0.00,CLR,,0.00,WeatherDisplay:10.37,2013-02-17 07:29:00,
2013-02-17 02:34:00,10.0,-16.7,29.94,NNW,337,4.6,4.6,28,0.00,CLR,,0.00,WeatherDisplay:10.37,2013-02-17 07:34:00,
2013-02-17 02:39:00,10.2,-16.5,29.93,NNW,340,2.0,5.0,28,0.00,CLR,CLR,0.00,WeatherDisplay:10.37,2013-02-17 07:39:00,
2013-02-17 02:44:00,10.2,-16.5,29.93,NNW,337,3.0,5.0,28,0.00,CLR,CLR,0.00,WeatherDisplay:10.37,2013-02-17 07:44:00,
2013-02-17 02:49:00,10.2,-16.5,29.92,NNW,333,2.0,5.0,28,0.00,CLR,CLR,0.00,WeatherDisplay:10.37,2013-02-17 07:49:00,
2013-02-17 02:54:00,10.2,-16.5,29.98,NNW,333,1.0,5.0,28,0.00,CLR,CLR,0.00,WeatherDisplay:10.37,2013-02-17 07:54:00,
2013-02-17 02:59:00,10.2,-16.5,29.98,NNW,340,1.0,5.0,28,0.00,CLR,CLR,0.00,WeatherDisplay:10.37,2013-02-17 07:59:00,
2013-02-17 03:04:00,10.2,-16.5,29.96,NNW,339,1.0,5.0,28,0.00,CLR,CLR,0.00,WeatherDisplay:10.37,2013-02-17 08:04:00,
2013-02-17 03:09:00,10.2,-16.5,29.96,NNW,337,2.0,3.0,28,0.00,CLR,CLR,0.00,WeatherDisplay:10.37,2013-02-17 08:09:00,
2013-02-17 03:14:00,10.4,-16.3,29.96,North,5,2.0,3.0,28,0.00,CLR,CLR,0.00,WeatherDisplay:10.37,2013-02-17 08:14:00,
2013-02-17 03:19:00,10.4,-16.3,29.98,North,1,1.0,3.0,28,0.00,CLR,CLR,0.00,WeatherDisplay:10.37,2013-02-17 08:19:00,
2013-02-17 03:24:00,10.4,-16.3,29.91,NNW,344,1.0,3.0,28,0.00,CLR,CLR,0.00,WeatherDisplay:10.37,2013-02-17 08:24:00,
2013-02-17 03:29:00,10.6,-16.2,29.92,NNW,336,2.0,3.0,28,0.00,CLR,CLR,0.00,WeatherDisplay:10.37,2013-02-17 08:29:00,
2013-02-17 03:34:00,10.6,-16.2,29.93,NNW,333,1.0,3.0,28,0.00,CLR,CLR,0.00,WeatherDisplay:10.37,2013-02-17 08:34:00,
2013-02-17 03:39:00,10.8,-16.0,29.94,NNW,335,0.0,3.0,28,0.00,CLR,CLR,0.00,WeatherDisplay:10.37,2013-02-17 08:39:00,
2013-02-17 03:44:00,10.8,-16.0,29.93,NNW,346,1.0,3.0,28,0.00,CLR,CLR,0.00,WeatherDisplay:10.37,2013-02-17 08:44:00,
2013-02-17 03:49:00,10.8,-16.0,29.92,NNW,341,1.0,3.0,28,0.00,CLR,CLR,0.00,WeatherDisplay:10.37,2013-02-17 08:49:00,
2013-02-17 03:54:00,10.8,-16.0,29.98,NNW,331,1.0,3.0,28,0.00,CLR,CLR,0.00,WeatherDisplay:10.37,2013-02-17 08:54:00,
2013-02-17 03:59:00,10.8,-16.0,29.97,NW,325,1.0,3.0,28,0.00,CLR,CLR,0.00,WeatherDisplay:10.37,2013-02-17 08:59:00,
2013-02-17 04:04:00,11.1,-15.7,29.96,NW,322,2.0,3.0,28,0.00,CLR,CLR,0.00,WeatherDisplay:10.37,2013-02-17 09:04:00,
2013-02-17 04:09:00,11.1,-15.7,29.96,NW,322,1.0,2.0,28,0.00,CLR,CLR,0.00,WeatherDisplay:10.37,2013-02-17 09:09:00,
2013-02-17 04:14:00,11.1,-15.7,29.97,NW,325,1.0,2.0,28,0.00,CLR,CLR,0.00,WeatherDisplay:10.37,2013-02-17 09:14:00,
2013-02-17 04:19:00,11.3,-15.5,29.96,NNW,333,0.0,2.0,28,0.00,CLR,CLR,0.00,WeatherDisplay:10.37,2013-02-17 09:19:00,
2013-02-17 04:24:00,11.3,-15.5,29.92,NW,314,1.0,2.0,28,0.00,CLR,CLR,0.00,WeatherDisplay:10.37,2013-02-17 09:24:00,
2013-02-17 04:29:00,11.5,-15.4,29.93,NW,308,1.0,2.0,28,0.00,CLR,CLR,0.00,WeatherDisplay:10.37,2013-02-17 09:29:00,
2013-02-17 04:34:00,11.5,-15.4,29.94,NNW,337,1.0,2.0,28,0.00,CLR,CLR,0.00,WeatherDisplay:10.37,2013-02-17 09:34:00,
2013-02-17 04:39:00,11.7,-15.2,29.94,NNW,339,0.0,2.0,28,0.00,CLR,CLR,0.00,WeatherDisplay:10.37,2013-02-17 09:39:00,
2013-02-17 04:44:00,11.7,-15.2,29.93,WNW,301,0.0,2.0,28,0.00,CLR,CLR,0.00,WeatherDisplay:10.37,2013-02-17 09:44:00,
2013-02-17 04:49:00,11.7,-15.2,29.92,WNW,285,0.0,2.0,28,0.00,CLR,CLR,0.00,WeatherDisplay:10.37,2013-02-17 09:49:00,
2013-02-17 04:54:00,8.2,-18.2,29.94,NW,305,0.0,2.0,28,0.00,CLR,CLR,0.00,WeatherDisplay:10.37,2013-02-17 09:54:00,
2013-02-17 04:59:00,8.2,-18.2,29.98,NW,315,0.0,2.0,28,0.00,CLR,CLR,0.00,WeatherDisplay:10.37,2013-02-17 09:59:00,
2013-02-17 05:04:00,8.2,-18.2,29.97,NW,315,0.0,2.0,28,0.00,CLR,CLR,0.00,WeatherDisplay:10.37,2013-02-17 10:04:00,
2013-02-17 05:09:00,8.4,-18.1,29.98,WNW,302,0.0,0.0,28,0.00,CLR,CLR,0.00,WeatherDisplay:10.37,2013-02-17 10:09:00,
2013-02-17 05:14:00,8.4,-18.1,29.98,WNW,292,0.0,0.0,28,0.00,CLR,CLR,0.00,WeatherDisplay:10.37,2013-02-17 10:14:00,
2013-02-17 05:19:00,8.6,-17.9,29.93,WNW,292,0.0,0.0,28,0.00,CLR,CLR,0.00,WeatherDisplay:10.37,2013-02-17 10:19:00,
2013-02-17 05:24:00,8.8,-17.8,29.93,WNW,292,0.0,0.0,28,0.00,CLR,CLR,0.00,WeatherDisplay:10.37,2013-02-17 10:24:00,
2013-02-17 05:29:00,8.8,-17.8,29.95,WNW,292,0.0,0.0,28,0.00,CLR,CLR,0.00,WeatherDisplay:10.37,2013-02-17 10:29:00,
2013-02-17 05:34:00,8.8,-17.8,29.95,West,271,0.0,0.0,28,0.00,CLR,CLR,0.00,WeatherDisplay:10.37,2013-02-17 10:34:00,
2013-02-17 05:39:00,9.0,-17.6,29.95,WSW,250,0.0,0.0,28,0.00,CLR,CLR,0.00,WeatherDisplay:10.37,2013-02-17 10:39:00,
2013-02-17 05:45:00,9.1,-17.4,29.99,WSW,247,0.0,0.0,28,0.00,CLR,,0.00,WeatherDisplay:10.37,2013-02-17 10:45:00,
2013-02-17 05:50:00,9.1,-17.4,29.99,WSW,247,0.0,0.0,28,0.00,CLR,,0.00,WeatherDisplay:10.37,2013-02-17 10:50:00,
2013-02-17 05:55:00,9.3,-17.3,29.99,West,270,1.1,1.1,28,0.00,CLR,,0.00,WeatherDisplay:10.37,2013-02-17 10:55:00,
2013-02-17 06:00:00,9.3,-17.3,29.99,WNW,292,1.1,0.0,28,0.00,CLR,,0.00,WeatherDisplay:10.37,2013-02-17 11:00:00,
2013-02-17 06:05:00,9.5,-17.1,29.99,WNW,292,1.1,1.1,28,0.00,CLR,,0.00,WeatherDisplay:10.37,2013-02-17 11:05:00,
2013-02-17 06:10:00,9.5,-17.1,29.94,WNW,292,0.3,0.0,28,0.00,CLR,,0.00,WeatherDisplay:10.37,2013-02-17 11:10:00,
2013-02-17 06:15:00,9.7,-17.0,29.95,WNW,292,0.7,0.7,28,0.00,CLR,,0.00,WeatherDisplay:10.37,2013-02-17 11:15:00,
2013-02-17 06:20:00,9.7,-17.0,29.95,WNW,292,1.1,0.0,28,0.00,CLR,,0.00,WeatherDisplay:10.37,2013-02-17 11:20:00,
2013-02-17 06:25:00,9.9,-16.8,29.96,NNW,337,1.3,1.3,28,0.00,CLR,,0.00,WeatherDisplay:10.37,2013-02-17 11:25:00,
2013-02-17 06:30:00,9.9,-16.8,29.95,WNW,292,1.3,1.3,28,0.00,CLR,,0.00,WeatherDisplay:10.37,2013-02-17 11:30:00,
2013-02-17 06:35:00,9.9,-16.8,29.96,WNW,292,1.3,0.0,28,0.00,CLR,,0.00,WeatherDisplay:10.37,2013-02-17 11:35:00,
2013-02-17 06:40:00,9.9,-16.8,30.01,WNW,292,1.3,1.3,28,0.00,CLR,,0.00,WeatherDisplay:10.37,2013-02-17 11:40:00,
2013-02-17 06:45:00,6.4,-19.8,30.00,NNW,337,1.3,1.3,28,0.00,CLR,,0.00,WeatherDisplay:10.37,2013-02-17 11:45:00,
2013-02-17 06:50:00,6.4,-19.8,30.01,NW,315,1.3,1.3,28,0.00,CLR,,0.00,WeatherDisplay:10.37,2013-02-17 11:50:00,
2013-02-17 06:55:00,6.4,-19.8,29.95,NW,315,1.3,1.3,28,0.00,CLR,,0.00,WeatherDisplay:10.37,2013-02-17 11:55:00,
2013-02-17 07:00:00,6.6,-19.6,29.97,NW,315,1.3,0.0,28,0.00,CLR,,0.00,WeatherDisplay:10.37,2013-02-17 12:00:00,
2013-02-17 07:05:00,6.6,-19.6,29.98,WNW,292,1.3,0.0,28,0.00,CLR,,0.00,WeatherDisplay:10.37,2013-02-17 12:05:00,
2013-02-17 07:10:00,6.6,-19.6,29.98,NW,315,1.3,1.3,28,0.00,CLR,,0.00,WeatherDisplay:10.37,2013-02-17 12:10:00,
2013-02-17 07:15:00,6.6,-19.6,29.97,NW,315,1.3,0.0,28,0.00,CLR,,0.00,WeatherDisplay:10.37,2013-02-17 12:15:00,
2013-02-17 07:20:00,6.6,-19.6,29.97,NW,315,1.3,0.0,28,0.00,CLR,,0.00,WeatherDisplay:10.37,2013-02-17 12:20:00,
2013-02-17 07:25:00,6.8,-19.5,30.02,West,270,1.3,0.0,28,0.00,CLR,,0.00,WeatherDisplay:10.37,2013-02-17 12:25:00,
2013-02-17 07:30:00,6.8,-19.5,30.02,WNW,292,1.3,0.0,28,0.00,CLR,,0.00,WeatherDisplay:10.37,2013-02-17 12:30:00,
2013-02-17 07:35:00,6.8,-19.5,30.02,NW,315,1.3,1.3,28,0.00,CLR,,0.00,WeatherDisplay:10.37,2013-02-17 12:35:00,
2013-02-17 07:40:00,6.8,-19.5,30.02,WNW,292,1.3,0.0,28,0.00,CLR,,0.00,WeatherDisplay:10.37,2013-02-17 12:40:00,
2013-02-17 07:45:00,6.8,-19.5,29.97,WNW,292,1.3,1.3,28,0.00,CLR,,0.00,WeatherDisplay:10.37,2013-02-17 12:45:00,
2013-02-17 07:50:00,6.8,-19.5,29.99,NW,315,1.3,1.3,28,0.00,CLR,,0.00,WeatherDisplay:10.37,2013-02-17 12:50:00,
2013-02-17 07:55:00,6.6,-19.6,29.99,NW,315,1.3,1.3,28,0.00,CLR,,0.00,WeatherDisplay:10.37,2013-02-17 12:55:00,
2013-02-17 08:00:00,6.6,-19.6,29.98,WNW,292,1.3,1.3,28,0.00,CLR,,0.00,WeatherDisplay:10.37,2013-02-17 13:00:00,
2013-02-17 08:05:00,6.4,-19.8,29.97,NNW,337,0.0,0.0,28,0.00,CLR,,0.00,WeatherDisplay:10.37,2013-02-17 13:05:00,
2013-02-17 08:10:00,6.4,-19.8,30.04,NW,315,0.0,0.0,28,0.00,CLR,,0.00,WeatherDisplay:10.37,2013-02-17 13:10:00,
2013-02-17 08:15:00,9.5,-17.1,30.03,NNW,337,1.3,1.3,28,0.00,CLR,,0.00,WeatherDisplay:10.37,2013-02-17 13:15:00,
2013-02-17 08:20:00,9.3,-17.3,30.02,WSW,247,2.3,2.3,28,0.00,CLR,,0.00,WeatherDisplay:10.37,2013-02-17 13:20:00,
2013-02-17 08:25:00,9.0,-17.6,29.97,NNW,337,2.3,2.3,28,0.00,CLR,,0.00,WeatherDisplay:10.37,2013-02-17 13:25:00,
2013-02-17 08:30:00,8.4,-18.1,29.99,WNW,292,2.3,2.3,28,0.00,CLR,,0.00,WeatherDisplay:10.37,2013-02-17 13:30:00,
2013-02-17 08:35:00,11.7,-15.2,30.00,WNW,292,2.3,2.3,28,0.00,CLR,,0.00,WeatherDisplay:10.37,2013-02-17 13:35:00,
2013-02-17 08:40:00,11.5,-15.4,30.00,WNW,292,2.3,2.3,28,0.00,CLR,,0.00,WeatherDisplay:10.37,2013-02-17 13:40:00,
2013-02-17 08:45:00,10.9,-15.9,29.99,NNW,337,2.6,2.6,28,0.00,CLR,,0.00,WeatherDisplay:10.37,2013-02-17 13:45:00,
2013-02-17 08:50:00,10.6,-16.2,30.04,NW,315,2.6,2.6,28,0.00,CLR,,0.00,WeatherDisplay:10.37,2013-02-17 13:50:00,
2013-02-17 08:55:00,10.2,-16.5,30.04,West,270,4.6,4.6,28,0.00,CLR,,0.00,WeatherDisplay:10.37,2013-02-17 13:55:00,
2013-02-17 09:00:00,13.5,-13.7,30.02,NNW,337,4.6,4.6,28,0.00,CLR,,0.00,WeatherDisplay:10.37,2013-02-17 14:00:00,
2013-02-17 09:05:00,12.9,-14.1,30.02,NNW,337,2.3,2.3,28,0.00,CLR,,0.00,WeatherDisplay:10.37,2013-02-17 14:05:00,
2013-02-17 09:10:00,12.6,-14.4,30.02,North,0,4.9,4.9,28,0.00,CLR,,0.00,WeatherDisplay:10.37,2013-02-17 14:10:00,
2013-02-17 09:15:00,12.2,-14.8,30.03,NW,315,4.9,4.9,28,0.00,CLR,,0.00,WeatherDisplay:10.37,2013-02-17 14:15:00,
2013-02-17 09:20:00,15.3,-12.1,30.04,NW,315,5.8,5.8,28,0.00,CLR,,0.00,WeatherDisplay:10.37,2013-02-17 14:20:00,
2013-02-17 09:25:00,14.4,-12.9,29.98,NNW,337,5.8,5.8,28,0.00,CLR,,0.00,WeatherDisplay:10.37,2013-02-17 14:25:00,
2013-02-17 09:30:00,13.6,-13.5,29.99,WNW,292,5.8,5.8,28,0.00,CLR,,0.00,WeatherDisplay:10.37,2013-02-17 14:30:00,
2013-02-17 09:35:00,16.5,-11.0,30.00,West,270,5.8,5.8,28,0.00,CLR,,0.00,WeatherDisplay:10.37,2013-02-17 14:35:00,
2013-02-17 09:40:00,16.3,-11.1,30.01,WNW,292,5.8,5.8,28,0.00,CLR,,0.00,WeatherDisplay:10.37,2013-02-17 14:40:00,
2013-02-17 09:45:00,16.0,-11.5,30.00,NNW,337,5.8,5.8,28,0.00,CLR,,0.00,WeatherDisplay:10.37,2013-02-17 14:45:00,
2013-02-17 09:50:00,18.7,-9.1,30.05,North,0,5.8,5.8,28,0.00,CLR,,0.00,WeatherDisplay:10.37,2013-02-17 14:50:00,
2013-02-17 09:55:00,18.3,-9.4,30.03,NNW,337,5.8,5.8,28,0.00,CLR,,0.00,WeatherDisplay:10.37,2013-02-17 14:55:00,
2013-02-17 10:00:00,17.4,-10.2,30.03,NW,315,5.8,5.8,28,0.00,CLR,,0.00,WeatherDisplay:10.37,2013-02-17 15:00:00,
2013-02-17 10:05:00,20.1,-7.8,30.04,North,0,5.8,5.8,28,0.00,CLR,,0.00,WeatherDisplay:10.37,2013-02-17 15:05:00,
2013-02-17 10:10:00,19.0,-8.8,30.04,NNE,22,4.0,4.0,28,0.00,CLR,,0.00,WeatherDisplay:10.37,2013-02-17 15:10:00,
2013-02-17 10:15:00,22.1,-6.1,30.05,North,0,4.0,4.0,28,0.00,CLR,,0.00,WeatherDisplay:10.37,2013-02-17 15:15:00,
2013-02-17 10:20:00,21.4,-6.7,30.05,NNW,337,4.6,4.6,28,0.00,CLR,,0.00,WeatherDisplay:10.37,2013-02-17 15:20:00,
2013-02-17 10:25:00,21.0,-7.1,30.06,NNE,22,5.9,5.9,28,0.00,CLR,,0.00,WeatherDisplay:10.37,2013-02-17 15:25:00,
2013-02-17 10:30:00,21.0,-7.1,30.07,NNW,337,5.9,5.9,28,0.00,CLR,,0.00,WeatherDisplay:10.37,2013-02-17 15:30:00,
2013-02-17 10:35:00,24.3,-4.2,30.01,NE,45,5.9,5.9,28,0.00,CLR,,0.00,WeatherDisplay:10.37,2013-02-17 15:35:00,
2013-02-17 10:40:00,23.7,-4.7,30.02,NNW,337,5.9,5.9,28,0.00,CLR,,0.00,WeatherDisplay:10.37,2013-02-17 15:40:00,
2013-02-17 10:45:00,23.2,-5.2,30.02,NE,45,5.9,5.9,28,0.00,CLR,,0.00,WeatherDisplay:10.37,2013-02-17 15:45:00,
2013-02-17 10:50:00,22.1,-6.1,30.02,NNW,337,5.9,5.9,28,0.00,CLR,,0.00,WeatherDisplay:10.37,2013-02-17 15:50:00,
2013-02-17 10:55:00,22.3,-6.0,30.02,North,0,8.1,8.1,28,0.00,CLR,,0.00,WeatherDisplay:10.37,2013-02-17 15:55:00,
2013-02-17 11:00:00,21.2,-6.9,30.02,NNW,337,8.1,8.1,28,0.00,CLR,,0.00,WeatherDisplay:10.37,2013-02-17 16:00:00,
2013-02-17 11:05:00,21.2,-6.9,30.03,NE,45,8.1,8.1,28,0.00,CLR,,0.00,WeatherDisplay:10.37,2013-02-17 16:05:00,
2013-02-17 11:10:00,25.9,-2.8,30.02,NNE,22,8.1,8.1,28,0.00,CLR,,0.00,WeatherDisplay:10.37,2013-02-17 16:10:00,
2013-02-17 11:15:00,25.9,-2.8,30.03,NNE,22,5.8,5.8,28,0.00,CLR,,0.00,WeatherDisplay:10.37,2013-02-17 16:15:00,
2013-02-17 11:20:00,25.3,-3.3,30.03,NNW,337,5.8,5.8,28,0.00,CLR,,0.00,WeatherDisplay:10.37,2013-02-17 16:20:00,
2013-02-17 11:25:00,25.2,-3.4,30.03,NNW,337,5.8,5.8,28,0.00,CLR,,0.00,WeatherDisplay:10.37,2013-02-17 16:25:00,
2013-02-17 11:30:00,25.5,-3.1,30.03,WNW,292,7.3,7.3,28,0.00,CLR,,0.00,WeatherDisplay:10.37,2013-02-17 16:30:00,
2013-02-17 11:35:00,25.5,-3.1,30.02,NNW,337,7.3,7.3,28,0.00,CLR,,0.00,WeatherDisplay:10.37,2013-02-17 16:35:00,
2013-02-17 11:40:00,26.2,-2.5,30.02,NNW,337,7.3,7.3,28,0.00,CLR,,0.00,WeatherDisplay:10.37,2013-02-17 16:40:00,
2013-02-17 11:45:00,26.2,-2.5,30.07,NNE,22,7.3,7.3,28,0.00,CLR,,0.00,WeatherDisplay:10.37,2013-02-17 16:45:00,
2013-02-17 11:50:00,26.4,-2.3,30.05,NE,45,7.3,7.3,28,0.00,CLR,,0.00,WeatherDisplay:10.37,2013-02-17 16:50:00,
2013-02-17 11:55:00,27.5,-1.4,30.06,NNW,337,7.3,7.3,28,0.00,CLR,,0.00,WeatherDisplay:10.37,2013-02-17 16:55:00,
2013-02-17 12:00:00,26.4,-2.3,30.06,North,0,7.3,7.3,28,0.00,CLR,,0.00,WeatherDisplay:10.37,2013-02-17 17:00:00,
2013-02-17 12:05:00,26.4,-2.3,30.07,West,270,6.9,6.9,28,0.00,CLR,,0.00,WeatherDisplay:10.37,2013-02-17 17:05:00,
2013-02-17 12:10:00,24.6,-3.9,30.07,North,0,6.1,6.1,28,0.00,CLR,,0.00,WeatherDisplay:10.37,2013-02-17 17:10:00,
2013-02-17 12:15:00,24.6,-3.9,30.07,NNW,337,6.1,6.1,28,0.00,CLR,,0.00,WeatherDisplay:10.37,2013-02-17 17:15:00,
2013-02-17 12:20:00,26.2,-2.5,30.01,NNW,337,6.1,6.1,28,0.00,CLR,,0.00,WeatherDisplay:10.37,2013-02-17 17:20:00,
2013-02-17 12:25:00,26.4,-2.3,30.02,NNW,337,6.1,6.1,28,0.00,CLR,,0.00,WeatherDisplay:10.37,2013-02-17 17:25:00,
2013-02-17 12:30:00,26.8,-2.0,30.01,NNW,337,6.1,6.1,28,0.00,CLR,,0.00,WeatherDisplay:10.37,2013-02-17 17:30:00,
2013-02-17 12:35:00,26.6,-2.2,30.02,NNW,337,6.1,6.1,28,0.00,CLR,,0.00,WeatherDisplay:10.37,2013-02-17 17:35:00,
2013-02-17 12:40:00,24.6,-3.9,30.02,North,0,6.1,6.1,28,0.00,CLR,,0.00,WeatherDisplay:10.37,2013-02-17 17:40:00,
2013-02-17 12:45:00,24.6,-3.9,30.02,NNW,337,6.9,6.9,28,0.00,CLR,,0.00,WeatherDisplay:10.37,2013-02-17 17:45:00,
2013-02-17 12:50:00,25.0,-3.6,30.02,NNW,337,6.9,6.9,28,0.00,CLR,,0.00,WeatherDisplay:10.37,2013-02-17 17:50:00,
2013-02-17 12:55:00,25.9,-2.8,30.01,NNW,337,8.4,8.4,28,0.00,CLR,,0.00,WeatherDisplay:10.37,2013-02-17 17:55:00,
2013-02-17 13:00:00,23.4,-5.0,30.06,NNW,337,8.4,8.4,28,0.00,CLR,,0.00,WeatherDisplay:10.37,2013-02-17 18:00:00,
2013-02-17 13:05:00,22.8,-5.5,30.00,North,0,8.1,8.1,28,0.00,CLR,,0.00,WeatherDisplay:10.37,2013-02-17 18:05:00,
2013-02-17 13:10:00,25.5,-3.1,30.01,NW,315,4.7,4.7,28,0.00,CLR,,0.00,WeatherDisplay:10.37,2013-02-17 18:10:00,
2013-02-17 13:15:00,25.5,-3.1,30.01,NW,315,5.1,5.1,28,0.00,CLR,,0.00,WeatherDisplay:10.37,2013-02-17 18:15:00,
2013-02-17 13:20:00,25.5,-3.1,30.02,NNW,337,5.1,5.1,28,0.00,CLR,,0.00,WeatherDisplay:10.37,2013-02-17 18:20:00,
2013-02-17 13:25:00,25.2,-3.4,30.01,NNW,337,5.1,5.1,28,0.00,CLR,,0.00,WeatherDisplay:10.37,2013-02-17 18:25:00,
2013-02-17 13:30:00,25.0,-3.6,30.01,NW,315,5.9,5.9,28,0.00,CLR,,0.00,WeatherDisplay:10.37,2013-02-17 18:30:00,
2013-02-17 13:35:00,26.2,-2.5,30.02,WNW,292,5.9,5.9,28,0.00,CLR,,0.00,WeatherDisplay:10.37,2013-02-17 18:35:00,
2013-02-17 13:40:00,26.2,-2.5,30.02,NNW,337,6.9,6.9,28,0.00,CLR,,0.00,WeatherDisplay:10.37,2013-02-17 18:40:00,
2013-02-17 13:45:00,25.3,-3.3,30.02,NNW,337,6.9,6.9,28,0.00,CLR,,0.00,WeatherDisplay:10.37,2013-02-17 18:45:00,
2013-02-17 13:50:00,22.6,-5.6,30.03,North,0,6.9,6.9,28,0.00,CLR,,0.00,WeatherDisplay:10.37,2013-02-17 18:50:00,
2013-02-17 13:55:00,20.8,-7.2,30.04,NNW,337,6.9,6.9,28,0.00,CLR,,0.00,WeatherDisplay:10.37,2013-02-17 18:55:00,
2013-02-17 14:00:00,24.3,-4.2,30.03,NNW,337,6.9,6.9,28,0.00,CLR,,0.00,WeatherDisplay:10.37,2013-02-17 19:00:00,
2013-02-17 14:05:00,21.0,-7.1,30.03,North,0,4.9,4.9,28,0.00,CLR,,0.00,WeatherDisplay:10.37,2013-02-17 19:05:00,
2013-02-17 14:10:00,21.0,-7.1,30.04,NW,315,6.9,6.9,28,0.00,CLR,,0.00,WeatherDisplay:10.37,2013-02-17 19:10:00,
2013-02-17 14:15:00,21.4,-6.7,30.04,NNW,337,6.9,6.9,28,0.00,CLR,,0.00,WeatherDisplay:10.37,2013-02-17 19:15:00,
2013-02-17 14:20:00,21.7,-6.4,30.05,North,0,6.9,6.9,28,0.00,CLR,,0.00,WeatherDisplay:10.37,2013-02-17 19:20:00,
2013-02-17 14:25:00,21.6,-6.6,30.05,North,0,6.9,6.9,28,0.00,CLR,,0.00,WeatherDisplay:10.37,2013-02-17 19:25:00,
2013-02-17 14:30:00,24.3,-4.2,30.05,WNW,292,6.9,6.9,28,0.00,CLR,,0.00,WeatherDisplay:10.37,2013-02-17 19:30:00,
2013-02-17 14:35:00,20.8,-7.2,30.05,NNW,337,6.9,6.9,28,0.00,CLR,,0.00,WeatherDisplay:10.37,2013-02-17 19:35:00,
2013-02-17 14:40:00,20.8,-7.2,30.05,NW,315,6.9,6.9,28,0.00,CLR,,0.00,WeatherDisplay:10.37,2013-02-17 19:40:00,
2013-02-17 14:45:00,24.1,-4.4,30.05,NW,315,6.9,6.9,28,0.00,CLR,,0.00,WeatherDisplay:10.37,2013-02-17 19:45:00,
2013-02-17 14:50:00,23.7,-4.7,30.00,North,0,6.9,6.9,28,0.00,CLR,,0.00,WeatherDisplay:10.37,2013-02-17 19:50:00,
2013-02-17 14:55:00,23.4,-5.0,30.00,WNW,292,7.3,7.3,28,0.00,CLR,,0.00,WeatherDisplay:10.37,2013-02-17 19:55:00,
2013-02-17 15:00:00,23.7,-4.7,30.00,NNW,337,7.3,7.3,28,0.00,CLR,,0.00,WeatherDisplay:10.37,2013-02-17 20:00:00,
2013-02-17 15:05:00,23.2,-5.2,30.01,NW,315,6.9,6.9,28,0.00,CLR,,0.00,WeatherDisplay:10.37,2013-02-17 20:05:00,
2013-02-17 15:10:00,23.4,-5.0,30.01,NNW,337,3.6,3.6,28,0.00,CLR,,0.00,WeatherDisplay:10.37,2013-02-17 20:10:00,
2013-02-17 15:15:00,23.2,-5.2,30.01,NNW,337,3.6,3.6,28,0.00,CLR,,0.00,WeatherDisplay:10.37,2013-02-17 20:15:00,
2013-02-17 15:20:00,22.8,-5.5,30.02,North,0,4.9,4.9,28,0.00,CLR,,0.00,WeatherDisplay:10.37,2013-02-17 20:20:00,
2013-02-17 15:25:00,23.4,-5.0,30.03,NNW,337,6.3,6.3,28,0.00,CLR,,0.00,WeatherDisplay:10.37,2013-02-17 20:25:00,
2013-02-17 15:30:00,23.7,-4.7,30.02,NW,315,6.3,6.3,28,0.00,CLR,,0.00,WeatherDisplay:10.37,2013-02-17 20:30:00,
2013-02-17 15:35:00,23.9,-4.5,30.02,NW,315,6.3,6.3,28,0.00,CLR,,0.00,WeatherDisplay:10.37,2013-02-17 20:35:00,
2013-02-17 15:40:00,20.8,-7.2,30.02,NNW,337,6.3,6.3,28,0.00,CLR,,0.00,WeatherDisplay:10.37,2013-02-17 20:40:00,
2013-02-17 15:45:00,21.0,-7.1,30.02,North,0,6.3,6.3,28,0.00,CLR,,0.00,WeatherDisplay:10.37,2013-02-17 20:45:00,
2013-02-17 15:50:00,21.7,-6.4,30.06,NNW,337,6.3,6.3,28,0.00,CLR,,0.00,WeatherDisplay:10.37,2013-02-17 20:50:00,
2013-02-17 15:55:00,21.7,-6.4,30.05,NNW,337,6.3,6.3,28,0.00,CLR,,0.00,WeatherDisplay:10.37,2013-02-17 20:55:00,
2013-02-17 16:00:00,21.0,-7.1,30.05,NW,315,6.3,6.3,28,0.00,CLR,,0.00,WeatherDisplay:10.37,2013-02-17 21:00:00,
2013-02-17 16:05:00,20.8,-7.2,30.06,WNW,292,3.6,3.6,28,0.00,CLR,,0.00,WeatherDisplay:10.37,2013-02-17 21:05:00,
2013-02-17 16:10:00,21.2,-6.9,30.00,NNW,337,3.6,3.6,28,0.00,CLR,,0.00,WeatherDisplay:10.37,2013-02-17 21:10:00,
2013-02-17 16:15:00,21.2,-6.9,30.01,WNW,292,4.7,4.7,28,0.00,CLR,,0.00,WeatherDisplay:10.37,2013-02-17 21:15:00,
2013-02-17 16:20:00,21.0,-7.1,30.02,NW,315,4.7,4.7,28,0.00,CLR,,0.00,WeatherDisplay:10.37,2013-02-17 21:20:00,
2013-02-17 16:25:00,20.8,-7.2,30.01,SW,225,4.7,4.7,28,0.00,CLR,,0.00,WeatherDisplay:10.37,2013-02-17 21:25:00,
2013-02-17 16:30:00,20.8,-7.2,30.03,WNW,292,4.7,4.7,28,0.00,CLR,,0.00,WeatherDisplay:10.37,2013-02-17 21:30:00,
2013-02-17 16:35:00,21.0,-7.1,30.03,NW,315,4.7,4.7,28,0.00,CLR,,0.00,WeatherDisplay:10.37,2013-02-17 21:35:00,
2013-02-17 16:40:00,21.2,-6.9,30.03,WNW,292,4.7,4.7,28,0.00,CLR,,0.00,WeatherDisplay:10.37,2013-02-17 21:40:00,
2013-02-17 16:45:00,24.1,-4.4,30.03,NW,315,5.8,5.8,28,0.00,CLR,,0.00,WeatherDisplay:10.37,2013-02-17 21:45:00,
2013-02-17 16:50:00,23.7,-4.7,30.02,NNW,337,5.8,5.8,28,0.00,CLR,,0.00,WeatherDisplay:10.37,2013-02-17 21:50:00,
2013-02-17 16:55:00,23.9,-4.5,30.01,WNW,292,5.8,5.8,28,0.00,CLR,,0.00,WeatherDisplay:10.37,2013-02-17 21:55:00,
2013-02-17 17:00:00,23.9,-4.5,30.06,SW,225,5.8,5.8,28,0.00,CLR,,0.00,WeatherDisplay:10.37,2013-02-17 22:00:00,
2013-02-17 17:05:00,20.8,-7.2,30.06,NW,315,3.5,3.5,28,0.00,CLR,,0.00,WeatherDisplay:10.37,2013-02-17 22:05:00,
2013-02-17 17:10:00,21.4,-6.7,30.01,NNW,337,3.5,3.5,28,0.00,CLR,,0.00,WeatherDisplay:10.37,2013-02-17 22:10:00,
2013-02-17 17:15:00,21.4,-6.7,30.02,WNW,292,4.6,4.6,28,0.00,CLR,,0.00,WeatherDisplay:10.37,2013-02-17 22:15:00,
2013-02-17 17:20:00,21.7,-6.4,30.02,WNW,292,4.6,4.6,28,0.00,CLR,,0.00,WeatherDisplay:10.37,2013-02-17 22:20:00,
2013-02-17 17:25:00,21.7,-6.4,30.02,West,270,4.6,4.6,28,0.00,CLR,,0.00,WeatherDisplay:10.37,2013-02-17 22:25:00,
2013-02-17 17:30:00,21.7,-6.4,30.04,NW,315,4.6,4.6,28,0.00,CLR,,0.00,WeatherDisplay:10.37,2013-02-17 22:30:00,
2013-02-17 17:35:00,22.1,-6.1,30.03,NW,315,4.6,4.6,28,0.00,CLR,,0.00,WeatherDisplay:10.37,2013-02-17 22:35:00,
2013-02-17 17:40:00,22.3,-6.0,30.03,NW,315,4.6,4.6,28,0.00,CLR,,0.00,WeatherDisplay:10.37,2013-02-17 22:40:00,
2013-02-17 17:45:00,22.3,-6.0,30.04,SW,225,4.6,4.6,28,0.00,CLR,,0.00,WeatherDisplay:10.37,2013-02-17 22:45:00,
2013-02-17 17:50:00,22.5,-5.8,30.02,SW,225,4.6,4.6,28,0.00,CLR,,0.00,WeatherDisplay:10.37,2013-02-17 22:50:00,
2013-02-17 17:55:00,22.5,-5.8,30.01,NW,315,4.6,4.6,28,0.00,CLR,,0.00,WeatherDisplay:10.37,2013-02-17 22:55:00,
2013-02-17 18:00:00,19.0,-8.8,30.06,NW,315,4.6,4.6,28,0.00,CLR,,0.00,WeatherDisplay:10.37,2013-02-17 23:00:00,
2013-02-17 18:07:00,19.2,-8.6,30.01,NW,315,1.1,1.1,28,0.00,CLR,,0.00,WeatherDisplay:10.37,2013-02-17 23:07:00,
2013-02-17 18:12:00,19.6,-8.3,30.01,NW,315,2.6,2.6,28,0.00,CLR,,0.00,WeatherDisplay:10.37,2013-02-17 23:12:00,
2013-02-17 18:17:00,19.6,-8.3,30.02,WNW,292,2.6,2.6,28,0.00,CLR,,0.00,WeatherDisplay:10.37,2013-02-17 23:17:00,
2013-02-17 18:22:00,19.6,-8.3,30.03,NW,315,2.6,2.6,28,0.00,CLR,,0.00,WeatherDisplay:10.37,2013-02-17 23:22:00,
2013-02-17 18:27:00,19.8,-8.2,30.03,NNW,337,2.6,0.0,28,0.00,CLR,,0.00,WeatherDisplay:10.37,2013-02-17 23:27:00,
2013-02-17 18:32:00,20.1,-7.8,30.04,WNW,292,2.6,0.0,28,0.00,CLR,,0.00,WeatherDisplay:10.37,2013-02-17 23:32:00,
2013-02-17 18:37:00,20.3,-7.7,30.05,WNW,292,2.6,0.0,28,0.00,CLR,,0.00,WeatherDisplay:10.37,2013-02-17 23:37:00,
2013-02-17 18:42:00,20.3,-7.7,30.05,WNW,292,2.6,0.0,28,0.00,CLR,,0.00,WeatherDisplay:10.37,2013-02-17 23:42:00,
2013-02-17 18:47:00,20.3,-7.7,30.03,WNW,292,2.6,0.0,28,0.00,CLR,,0.00,WeatherDisplay:10.37,2013-02-17 23:47:00,
2013-02-17 18:52:00,20.5,-7.5,30.01,SW,225,2.6,0.0,28,0.00,CLR,,0.00,WeatherDisplay:10.37,2013-02-17 23:52:00,
2013-02-17 18:57:00,20.5,-7.5,30.07,SW,225,2.6,0.0,28,0.00,CLR,,0.00,WeatherDisplay:10.37,2013-02-17 23:57:00,
2013-02-17 19:02:00,20.5,-7.5,30.07,SW,225,2.6,0.0,28,0.00,CLR,,0.00,WeatherDisplay:10.37,2013-02-18 00:02:00,
2013-02-17 19:07:00,20.7,-7.4,30.01,SW,225,0.0,0.0,28,0.00,CLR,,0.00,WeatherDisplay:10.37,2013-02-18 00:07:00,
2013-02-17 19:12:00,17.2,-10.4,30.02,SSE,157,0.0,0.0,28,0.00,CLR,,0.00,WeatherDisplay:10.37,2013-02-18 00:12:00,
2013-02-17 19:17:00,17.2,-10.4,30.03,SSE,157,0.0,0.0,28,0.00,CLR,,0.00,WeatherDisplay:10.37,2013-02-18 00:17:00,
2013-02-17 19:22:00,17.4,-10.2,30.03,SSE,157,0.0,0.0,28,0.00,CLR,,0.00,WeatherDisplay:10.37,2013-02-18 00:22:00,
2013-02-17 19:27:00,17.4,-10.2,30.03,SSE,157,0.0,0.0,28,0.00,CLR,,0.00,WeatherDisplay:10.37,2013-02-18 00:27:00,
2013-02-17 19:32:00,17.8,-9.9,30.03,SSE,157,0.0,0.0,28,0.00,CLR,,0.00,WeatherDisplay:10.37,2013-02-18 00:32:00,
2013-02-17 19:37:00,18.0,-9.7,30.03,SSE,157,0.0,0.0,28,0.00,CLR,,0.00,WeatherDisplay:10.37,2013-02-18 00:37:00,
2013-02-17 19:42:00,18.1,-9.6,30.03,SSE,157,0.0,0.0,28,0.00,CLR,,0.00,WeatherDisplay:10.37,2013-02-18 00:42:00,
2013-02-17 19:47:00,18.3,-9.4,30.04,SSE,157,0.0,0.0,28,0.00,CLR,,0.00,WeatherDisplay:10.37,2013-02-18 00:47:00,
2013-02-17 19:52:00,18.3,-9.4,30.02,SSE,157,0.0,0.0,28,0.00,CLR,,0.00,WeatherDisplay:10.37,2013-02-18 00:52:00,
2013-02-17 19:57:00,18.3,-9.4,30.01,SSE,157,0.0,0.0,28,0.00,CLR,,0.00,WeatherDisplay:10.37,2013-02-18 00:57:00,
2013-02-17 20:02:00,18.5,-9.3,30.06,SSE,157,0.0,0.0,28,0.00,CLR,,0.00,WeatherDisplay:10.37,2013-02-18 01:02:00,
2013-02-17 20:07:00,18.5,-9.3,30.06,SSE,157,0.0,0.0,28,0.00,CLR,,0.00,WeatherDisplay:10.37,2013-02-18 01:07:00,
2013-02-17 20:12:00,18.7,-9.1,30.06,SSE,157,0.0,0.0,28,0.00,CLR,,0.00,WeatherDisplay:10.37,2013-02-18 01:12:00,
2013-02-17 20:17:00,18.7,-9.1,30.01,SSE,157,0.0,0.0,28,0.00,CLR,,0.00,WeatherDisplay:10.37,2013-02-18 01:17:00,
2013-02-17 20:22:00,15.4,-11.9,30.01,SSE,157,0.0,0.0,28,0.00,CLR,,0.00,WeatherDisplay:10.37,2013-02-18 01:22:00,
2013-02-17 20:27:00,15.8,-11.6,30.02,SSE,157,0.0,0.0,28,0.00,CLR,,0.00,WeatherDisplay:10.37,2013-02-18 01:27:00,
2013-02-17 20:32:00,15.8,-11.6,30.03,SSE,157,0.0,0.0,28,0.00,CLR,,0.00,WeatherDisplay:10.37,2013-02-18 01:32:00,
2013-02-17 20:37:00,16.2,-11.3,30.04,SSE,157,0.0,0.0,28,0.00,CLR,,0.00,WeatherDisplay:10.37,2013-02-18 01:37:00,
2013-02-17 20:42:00,16.2,-11.3,30.04,SSE,157,0.0,0.0,28,0.00,CLR,,0.00,WeatherDisplay:10.37,2013-02-18 01:42:00,
2013-02-17 20:47:00,16.3,-11.1,30.03,SSE,157,0.0,0.0,28,0.00,CLR,,0.00,WeatherDisplay:10.37,2013-02-18 01:47:00,
2013-02-17 20:52:00,16.5,-11.0,30.02,SSE,157,0.0,0.0,28,0.00,CLR,,0.00,WeatherDisplay:10.37,2013-02-18 01:52:00,
2013-02-17 20:57:00,16.5,-11.0,30.08,SSE,157,0.0,0.0,28,0.00,CLR,,0.00,WeatherDisplay:10.37,2013-02-18 01:57:00,
2013-02-17 21:02:00,16.7,-10.8,30.08,SSE,157,0.0,0.0,28,0.00,CLR,,0.00,WeatherDisplay:10.37,2013-02-18 02:02:00,
2013-02-17 21:07:00,16.9,-10.7,30.03,SSE,157,0.0,0.0,28,0.00,CLR,,0.00,WeatherDisplay:10.37,2013-02-18 02:07:00,
2013-02-17 21:12:00,13.6,-13.5,30.03,SSE,157,0.0,0.0,28,0.00,CLR,,0.00,WeatherDisplay:10.37,2013-02-18 02:12:00,
2013-02-17 21:17:00,13.8,-13.3,30.03,SSE,157,0.0,0.0,28,0.00,CLR,,0.00,WeatherDisplay:10.37,2013-02-18 02:17:00,
2013-02-17 21:22:00,13.8,-13.3,30.04,SSE,157,0.0,0.0,28,0.00,CLR,,0.00,WeatherDisplay:10.37,2013-02-18 02:22:00,
2013-02-17 21:27:00,13.8,-13.3,30.05,SSE,157,0.0,0.0,28,0.00,CLR,,0.00,WeatherDisplay:10.37,2013-02-18 02:27:00,
2013-02-17 21:32:00,13.6,-13.5,30.04,SSE,157,0.0,0.0,28,0.00,CLR,,0.00,WeatherDisplay:10.37,2013-02-18 02:32:00,
2013-02-17 21:37:00,13.8,-13.3,30.04,SSE,157,0.0,0.0,28,0.00,CLR,,0.00,WeatherDisplay:10.37,2013-02-18 02:37:00,
2013-02-17 21:42:00,14.0,-13.2,30.02,SSE,157,0.0,0.0,28,0.00,CLR,,0.00,WeatherDisplay:10.37,2013-02-18 02:42:00,
2013-02-17 21:47:00,14.0,-13.2,30.08,SE,135,0.0,0.0,28,0.00,CLR,,0.00,WeatherDisplay:10.37,2013-02-18 02:47:00,
2013-02-17 21:52:00,14.4,-12.9,30.07,SSE,157,0.0,0.0,28,0.00,CLR,,0.00,WeatherDisplay:10.37,2013-02-18 02:52:00,
2013-02-17 21:57:00,14.4,-12.9,30.08,SSE,157,0.0,0.0,28,0.00,CLR,,0.00,WeatherDisplay:10.37,2013-02-18 02:57:00,
2013-02-17 22:02:00,14.4,-12.9,30.02,SE,135,0.0,0.0,28,0.00,CLR,,0.00,WeatherDisplay:10.37,2013-02-18 03:02:00,
2013-02-17 22:07:00,14.5,-12.7,30.03,SE,135,0.0,0.0,28,0.00,CLR,,0.00,WeatherDisplay:10.37,2013-02-18 03:07:00,
2013-02-17 22:12:00,14.5,-12.7,30.04,SE,135,0.0,0.0,28,0.00,CLR,,0.00,WeatherDisplay:10.37,2013-02-18 03:12:00,
2013-02-17 22:17:00,14.9,-12.4,30.04,SE,135,0.0,0.0,28,0.00,CLR,,0.00,WeatherDisplay:10.37,2013-02-18 03:17:00,
2013-02-17 22:22:00,14.9,-12.4,30.04,SE,135,0.0,0.0,28,0.00,CLR,,0.00,WeatherDisplay:10.37,2013-02-18 03:22:00,
2013-02-17 22:27:00,14.9,-12.4,30.05,SE,135,0.0,0.0,28,0.00,CLR,,0.00,WeatherDisplay:10.37,2013-02-18 03:27:00,
2013-02-17 22:32:00,15.1,-12.2,30.04,South,180,0.0,0.0,28,0.00,CLR,,0.00,WeatherDisplay:10.37,2013-02-18 03:32:00,
2013-02-17 22:37:00,15.1,-12.2,30.04,West,270,0.0,0.0,28,0.00,CLR,,0.00,WeatherDisplay:10.37,2013-02-18 03:37:00,
2013-02-17 22:42:00,15.3,-12.1,30.09,SW,225,0.0,0.0,28,0.00,CLR,,0.00,WeatherDisplay:10.37,2013-02-18 03:42:00,
2013-02-17 22:47:00,15.3,-12.1,30.08,SSW,202,0.0,0.0,28,0.00,CLR,,0.00,WeatherDisplay:10.37,2013-02-18 03:47:00,
2013-02-17 22:52:00,11.8,-15.1,30.08,SSW,202,0.0,0.0,28,0.00,CLR,,0.00,WeatherDisplay:10.37,2013-02-18 03:52:00,
2013-02-17 22:57:00,11.8,-15.1,30.02,SSE,157,0.0,0.0,28,0.00,CLR,,0.00,WeatherDisplay:10.37,2013-02-18 03:57:00,
2013-02-17 23:02:00,11.8,-15.1,30.03,SSE,157,0.0,0.0,28,0.00,CLR,,0.00,WeatherDisplay:10.37,2013-02-18 04:02:00,
2013-02-17 23:07:00,11.8,-15.1,30.03,SSE,157,0.0,0.0,28,0.00,CLR,,0.00,WeatherDisplay:10.37,2013-02-18 04:07:00,
2013-02-17 23:12:00,11.8,-15.1,30.05,ENE,67,1.1,0.0,28,0.00,CLR,,0.00,WeatherDisplay:10.37,2013-02-18 04:12:00,
2013-02-17 23:17:00,12.0,-14.9,30.05,ENE,67,1.1,0.0,28,0.00,CLR,,0.00,WeatherDisplay:10.37,2013-02-18 04:17:00,
2013-02-17 23:22:00,12.0,-14.9,30.03,ENE,67,1.1,0.0,28,0.00,CLR,,0.00,WeatherDisplay:10.37,2013-02-18 04:22:00,
2013-02-17 23:27:00,12.0,-14.9,30.03,ENE,67,1.1,0.0,28,0.00,CLR,,0.00,WeatherDisplay:10.37,2013-02-18 04:27:00,
2013-02-17 23:32:00,12.2,-14.8,30.08,NE,45,1.1,0.0,28,0.00,CLR,,0.00,WeatherDisplay:10.37,2013-02-18 04:32:00,
2013-02-17 23:37:00,12.2,-14.8,30.06,SW,225,1.1,0.0,28,0.00,CLR,,0.00,WeatherDisplay:10.37,2013-02-18 04:37:00,
2013-02-17 23:42:00,12.2,-14.8,30.07,SSW,202,1.1,0.0,28,0.00,CLR,,0.00,WeatherDisplay:10.37,2013-02-18 04:42:00,
2013-02-17 23:47:00,12.2,-14.8,30.02,NNE,22,1.1,0.0,28,0.00,CLR,,0.00,WeatherDisplay:10.37,2013-02-18 04:47:00,
2013-02-17 23:52:00,12.2,-14.8,30.02,SSE,157,1.1,0.0,28,0.00,CLR,,0.00,WeatherDisplay:10.37,2013-02-18 04:52:00,
2013-02-17 23:57:00,12.2,-14.8,30.04,SW,225,1.1,0.0,28,0.00,CLR,,0.00,WeatherDisplay:10.37,2013-02-18 04:57:00,